createdAt,value
2023-01-21T00:01:05.917Z,5.00
2023-01-21T00:03:32.974Z,4.96
2023-01-21T00:05:59.904Z,5.02
2023-01-21T00:08:27.533Z,5.11
2023-01-21T00:10:54.565Z,5.11
2023-01-21T00:13:22.122Z,5.15
2023-01-21T00:15:49.027Z,5.20
2023-01-21T00:18:16.053Z,5.14
2023-01-21T00:20:42.827Z,5.16
2023-01-21T00:23:09.720Z,5.19
2023-01-21T00:25:36.506Z,5.18
2023-01-21T00:28:03.625Z,5.21
2023-01-21T00:30:30.599Z,5.22
2023-01-21T00:32:57.637Z,5.22
2023-01-21T00:35:24.569Z,5.05
2023-01-21T00:37:52.004Z,5.02
2023-01-21T00:40:19.200Z,5.18
2023-01-21T00:42:46.334Z,5.24
2023-01-21T00:45:13.398Z,5.24
2023-01-21T00:47:40.605Z,5.31
2023-01-21T00:50:08.109Z,5.12
2023-01-21T00:52:34.965Z,5.19
2023-01-21T00:55:01.842Z,5.21
2023-01-21T00:57:28.854Z,5.24
2023-01-21T00:59:56.040Z,5.25
2023-01-21T01:02:22.924Z,5.27
2023-01-21T01:04:49.926Z,5.22
2023-01-21T01:07:16.860Z,5.21
2023-01-21T01:09:43.723Z,5.27
2023-01-21T01:12:10.599Z,5.28
2023-01-21T01:14:37.540Z,4.94
2023-01-21T01:17:04.432Z,4.86
2023-01-21T01:19:31.309Z,4.89
2023-01-21T01:21:58.143Z,4.80
2023-01-21T01:24:25.087Z,4.88
2023-01-21T01:26:51.956Z,4.82
2023-01-21T01:29:18.882Z,4.90
2023-01-21T01:31:45.834Z,4.89
2023-01-21T01:34:12.737Z,4.68
2023-01-21T01:36:39.752Z,4.52
2023-01-21T01:39:06.639Z,4.21
2023-01-21T01:41:34.060Z,4.53
2023-01-21T01:44:03.383Z,4.39
2023-01-21T01:46:33.413Z,4.42
2023-01-21T01:49:32.602Z,4.47
2023-01-21T01:52:03.294Z,4.35
2023-01-21T01:54:52.109Z,3.66
2023-01-21T01:57:22.462Z,2.84
2023-01-21T01:59:50.532Z,2.96
2023-01-21T02:02:20.130Z,3.09
2023-01-21T02:05:00.395Z,3.21
2023-01-21T02:07:30.454Z,3.38
2023-01-21T02:09:57.345Z,3.44
2023-01-21T02:12:24.863Z,2.48
2023-01-21T02:14:51.864Z,1.49
2023-01-21T02:17:27.482Z,1.50
2023-01-21T02:20:06.122Z,1.42
2023-01-21T02:22:56.893Z,1.82
2023-01-21T02:26:04.160Z,2.14
2023-01-21T02:28:57.802Z,2.15
2023-01-21T02:31:30.311Z,2.26
2023-01-21T02:34:15.380Z,2.04
2023-01-21T02:36:45.041Z,1.90
2023-01-21T02:39:31.042Z,2.03
2023-01-21T02:42:17.532Z,2.22
2023-01-21T02:44:57.237Z,2.29
2023-01-21T02:47:33.538Z,2.37
2023-01-21T02:50:08.995Z,2.47
2023-01-21T02:52:36.004Z,2.46
2023-01-21T02:55:03.992Z,2.71
2023-01-21T02:57:40.055Z,2.86
2023-01-21T03:00:13.437Z,2.89
2023-01-21T03:03:01.931Z,2.80
2023-01-21T03:05:44.657Z,2.40
2023-01-21T03:08:36.676Z,2.37
2023-01-21T03:11:18.786Z,2.40
2023-01-21T03:13:45.866Z,2.48
2023-01-21T03:16:16.997Z,2.58
2023-01-21T03:18:49.328Z,2.75
2023-01-21T03:21:22.078Z,2.59
2023-01-21T03:23:51.652Z,2.41
2023-01-21T03:26:24.793Z,2.28
2023-01-21T03:28:56.241Z,2.39
2023-01-21T03:31:29.916Z,2.46
2023-01-21T03:34:00.310Z,2.52
2023-01-21T03:36:41.602Z,2.59
2023-01-21T03:39:21.454Z,2.69
2023-01-21T03:41:48.566Z,2.76
2023-01-21T03:44:15.570Z,2.66
2023-01-21T03:47:06.921Z,2.60
2023-01-21T03:49:58.667Z,2.44
2023-01-21T03:52:26.826Z,2.19
2023-01-21T03:54:54.405Z,2.12
2023-01-21T03:57:21.378Z,2.21
2023-01-21T03:59:48.237Z,2.18
2023-01-21T04:02:15.303Z,2.11
2023-01-21T04:04:42.271Z,1.87
2023-01-21T04:07:09.668Z,1.79
2023-01-21T04:09:36.490Z,1.67
2023-01-21T04:12:03.545Z,1.95
2023-01-21T04:14:30.451Z,2.21
2023-01-21T04:16:57.358Z,2.27
2023-01-21T04:19:24.326Z,2.19
2023-01-21T04:21:51.261Z,1.57
2023-01-21T04:24:18.114Z,1.62
2023-01-21T04:26:45.022Z,1.48
2023-01-21T04:29:12.016Z,1.49
2023-01-21T04:31:38.935Z,1.69
2023-01-21T04:34:05.856Z,1.90
2023-01-21T04:36:32.714Z,2.14
2023-01-21T04:38:59.520Z,2.29
2023-01-21T04:41:26.619Z,2.23
2023-01-21T04:43:53.517Z,2.04
2023-01-21T04:46:20.502Z,2.07
2023-01-21T04:48:47.545Z,2.19
2023-01-21T04:51:14.473Z,2.08
2023-01-21T04:53:41.443Z,2.11
2023-01-21T04:56:08.544Z,2.26
2023-01-21T04:58:35.432Z,2.44
2023-01-21T05:01:02.551Z,2.52
2023-01-21T05:03:29.561Z,2.64
2023-01-21T05:05:56.503Z,2.74
2023-01-21T05:08:23.401Z,2.79
2023-01-21T05:10:50.226Z,2.67
2023-01-21T05:13:17.180Z,2.80
2023-01-21T05:15:44.147Z,3.04
2023-01-21T05:18:11.195Z,3.36
2023-01-21T05:20:38.077Z,3.62
2023-01-21T05:23:04.925Z,3.98
2023-01-21T05:25:31.823Z,3.29
2023-01-21T05:27:58.723Z,3.47
2023-01-21T05:30:25.740Z,3.91
2023-01-21T05:32:54.016Z,3.99
2023-01-21T05:35:22.855Z,3.79
2023-01-21T05:37:50.135Z,3.85
2023-01-21T05:40:18.431Z,3.94
2023-01-21T05:42:46.696Z,4.19
2023-01-21T05:45:14.285Z,4.15
2023-01-21T05:47:41.557Z,4.22
2023-01-21T05:50:09.492Z,4.33
2023-01-21T05:52:39.437Z,4.52
2023-01-21T05:55:07.266Z,4.60
2023-01-21T05:57:34.392Z,4.70
2023-01-21T06:00:01.240Z,4.82
2023-01-21T06:02:28.271Z,4.91
2023-01-21T06:04:55.224Z,5.03
2023-01-21T06:07:22.099Z,5.15
2023-01-21T06:09:48.919Z,5.23
2023-01-21T06:12:15.845Z,5.18
2023-01-21T06:14:42.785Z,5.12
2023-01-21T06:17:09.698Z,5.16
2023-01-21T06:19:36.614Z,5.30
2023-01-21T06:22:03.486Z,5.52
2023-01-21T06:24:30.448Z,5.66
2023-01-21T06:26:57.325Z,5.65
2023-01-21T06:29:24.356Z,5.52
2023-01-21T06:31:51.388Z,5.44
2023-01-21T06:34:18.338Z,5.40
2023-01-21T06:36:45.200Z,5.23
2023-01-21T06:39:12.215Z,4.86
2023-01-21T06:41:39.077Z,4.47
2023-01-21T06:44:06.475Z,4.47
2023-01-21T06:46:33.500Z,4.31
2023-01-21T06:49:00.561Z,4.61
2023-01-21T06:51:27.488Z,4.84
2023-01-21T06:53:54.740Z,4.99
2023-01-21T06:56:22.473Z,5.22
2023-01-21T06:58:49.432Z,5.37
2023-01-21T07:01:16.290Z,4.90
2023-01-21T07:03:43.369Z,4.67
2023-01-21T07:06:10.388Z,4.76
2023-01-21T07:08:37.381Z,4.84
2023-01-21T07:11:04.575Z,4.83
2023-01-21T07:13:31.352Z,4.84
2023-01-21T07:16:02.170Z,4.76
2023-01-21T07:18:29.159Z,5.02
2023-01-21T07:20:56.885Z,5.16
2023-01-21T07:23:24.158Z,5.50
2023-01-21T07:25:51.493Z,5.70
2023-01-21T07:28:18.416Z,5.78
2023-01-21T07:30:45.726Z,5.86
2023-01-21T07:33:12.609Z,6.02
2023-01-21T07:35:39.498Z,6.15
2023-01-21T07:38:06.455Z,6.50
2023-01-21T07:40:33.540Z,6.67
2023-01-21T07:43:00.486Z,6.83
2023-01-21T07:45:27.533Z,6.83
2023-01-21T07:47:54.618Z,6.58
2023-01-21T07:50:21.489Z,6.49
2023-01-21T07:52:48.496Z,6.79
2023-01-21T07:55:16.661Z,6.88
2023-01-21T07:57:43.849Z,7.07
2023-01-21T08:00:11.461Z,7.25
2023-01-21T08:02:38.954Z,7.22
2023-01-21T08:05:07.198Z,7.30
2023-01-21T08:07:34.138Z,7.31
2023-01-21T08:10:01.435Z,7.28
2023-01-21T08:12:28.727Z,7.51
2023-01-21T08:14:55.567Z,7.63
2023-01-21T08:17:22.532Z,7.62
2023-01-21T08:19:49.371Z,7.75
2023-01-21T08:22:16.347Z,7.81
2023-01-21T08:24:43.300Z,8.05
2023-01-21T08:27:10.140Z,8.20
2023-01-21T08:29:37.053Z,8.34
2023-01-21T08:32:04.073Z,8.39
2023-01-21T08:34:30.981Z,8.57
2023-01-21T08:36:57.816Z,8.69
2023-01-21T08:39:24.628Z,8.63
2023-01-21T08:41:51.482Z,8.79
2023-01-21T08:44:18.352Z,8.85
2023-01-21T08:46:45.241Z,8.76
2023-01-21T08:49:12.135Z,8.57
2023-01-21T08:51:39.078Z,8.59
2023-01-21T08:54:05.939Z,8.75
2023-01-21T08:56:34.916Z,8.86
2023-01-21T08:59:01.851Z,9.09
2023-01-21T09:01:29.313Z,9.30
2023-01-21T09:04:01.200Z,9.44
2023-01-21T09:06:29.999Z,9.54
2023-01-21T09:08:57.202Z,9.65
2023-01-21T09:11:25.486Z,9.67
2023-01-21T09:13:52.558Z,9.61
2023-01-21T09:16:22.442Z,9.78
2023-01-21T09:18:50.245Z,9.53
2023-01-21T09:21:17.152Z,9.67
2023-01-21T09:23:44.209Z,9.95
2023-01-21T09:26:17.171Z,10.04
2023-01-21T09:28:46.069Z,10.28
2023-01-21T09:31:17.743Z,10.36
2023-01-21T09:33:47.229Z,10.41
2023-01-21T09:36:23.525Z,10.57
2023-01-21T09:38:51.512Z,10.68
2023-01-21T09:41:38.596Z,10.70
2023-01-21T09:44:10.262Z,10.66
2023-01-21T09:46:47.225Z,10.67
2023-01-21T09:49:19.615Z,10.91
2023-01-21T09:51:59.560Z,10.96
2023-01-21T09:54:32.453Z,10.94
2023-01-21T09:57:26.842Z,11.12
2023-01-21T10:00:20.181Z,11.26
2023-01-21T10:02:57.951Z,11.27
2023-01-21T10:05:24.849Z,11.21
2023-01-21T10:08:03.496Z,11.17
2023-01-21T10:10:30.353Z,11.38
2023-01-21T10:13:02.953Z,11.65
2023-01-21T10:16:02.111Z,12.06
2023-01-21T10:18:32.630Z,11.88
2023-01-21T10:21:08.997Z,11.73
2023-01-21T10:23:42.943Z,11.65
2023-01-21T10:26:13.260Z,11.47
2023-01-21T10:28:44.238Z,11.70
2023-01-21T10:31:39.425Z,12.00
2023-01-21T10:34:19.567Z,12.16
2023-01-21T10:37:15.396Z,12.25
2023-01-21T10:40:03.436Z,11.83
2023-01-21T10:42:35.831Z,12.14
2023-01-21T10:45:21.228Z,12.53
2023-01-21T10:48:31.035Z,12.04
2023-01-21T10:51:24.808Z,12.15
2023-01-21T10:54:03.411Z,12.08
2023-01-21T10:57:12.230Z,12.09
2023-01-21T10:59:40.345Z,12.31
2023-01-21T11:02:18.011Z,12.01
2023-01-21T11:04:45.741Z,11.74
2023-01-21T11:07:17.804Z,11.93
2023-01-21T11:09:47.255Z,11.88
2023-01-21T11:12:19.359Z,11.62
2023-01-21T11:14:57.709Z,11.74
2023-01-21T11:17:53.843Z,12.19
2023-01-21T11:20:22.970Z,12.18
2023-01-21T11:22:50.522Z,12.03
2023-01-21T11:25:43.821Z,11.99
2023-01-21T11:28:29.356Z,12.29
2023-01-21T11:31:15.407Z,12.52
2023-01-21T11:33:43.732Z,12.18
2023-01-21T11:36:18.657Z,11.94
2023-01-21T11:39:01.265Z,12.00
2023-01-21T11:41:28.361Z,12.02
2023-01-21T11:44:08.192Z,12.00
2023-01-21T11:46:40.987Z,12.00
2023-01-21T11:49:07.832Z,11.72
2023-01-21T11:51:40.205Z,11.73
2023-01-21T11:54:24.058Z,11.85
2023-01-21T11:56:59.922Z,11.65
2023-01-21T11:59:37.926Z,11.64
2023-01-21T12:02:17.156Z,11.83
2023-01-21T12:04:54.445Z,11.78
2023-01-21T12:07:42.275Z,11.89
2023-01-21T12:10:14.612Z,12.10
2023-01-21T12:12:47.656Z,12.22
2023-01-21T12:15:40.676Z,12.23
2023-01-21T12:18:37.297Z,12.48
2023-01-21T12:21:11.536Z,12.45
2023-01-21T12:23:46.373Z,12.30
2023-01-21T12:26:41.155Z,12.34
2023-01-21T12:29:22.939Z,12.23
2023-01-21T12:31:59.434Z,12.07
2023-01-21T12:34:37.135Z,12.09
2023-01-21T12:37:13.197Z,12.09
2023-01-21T12:39:42.492Z,12.05
2023-01-21T12:42:25.731Z,12.00
2023-01-21T12:44:56.872Z,11.98
2023-01-21T12:47:29.550Z,11.85
2023-01-21T12:50:07.549Z,11.52
2023-01-21T12:52:59.260Z,11.48
2023-01-21T12:55:42.172Z,11.62
2023-01-21T12:58:19.368Z,11.59
2023-01-21T13:00:49.659Z,11.62
2023-01-21T13:03:23.634Z,11.54
2023-01-21T13:06:08.410Z,11.60
2023-01-21T13:09:14.101Z,11.56
2023-01-21T13:11:55.977Z,11.32
2023-01-21T13:14:30.144Z,11.24
2023-01-21T13:17:02.638Z,11.24
2023-01-21T13:19:29.677Z,11.23
2023-01-21T13:22:05.217Z,11.29
2023-01-21T13:24:34.936Z,11.25
2023-01-21T13:27:40.298Z,11.19
2023-01-21T13:30:28.611Z,11.02
2023-01-21T13:33:19.913Z,11.06
2023-01-21T13:36:08.501Z,11.06
2023-01-21T13:38:57.160Z,11.13
2023-01-21T13:42:01.559Z,11.02
2023-01-21T13:44:50.165Z,11.00
2023-01-21T13:47:43.401Z,10.96
2023-01-21T13:50:19.307Z,10.73
2023-01-21T13:52:58.335Z,10.71
2023-01-21T13:55:40.355Z,10.67
2023-01-21T13:58:23.052Z,10.59
2023-01-21T14:00:56.358Z,10.60
2023-01-21T14:03:31.331Z,10.46
2023-01-21T14:06:12.004Z,10.36
2023-01-21T14:08:52.349Z,10.22
2023-01-21T14:11:27.336Z,10.27
2023-01-21T14:14:02.951Z,10.24
2023-01-21T14:16:45.655Z,10.15
2023-01-21T14:19:34.330Z,10.09
2023-01-21T14:22:16.361Z,10.05
2023-01-21T14:25:10.419Z,9.95
2023-01-21T14:28:18.480Z,9.85
2023-01-21T14:31:00.948Z,9.80
2023-01-21T14:33:57.882Z,9.76
2023-01-21T14:36:40.848Z,9.67
2023-01-21T14:39:10.684Z,9.62
2023-01-21T14:42:05.270Z,9.62
2023-01-21T14:44:43.634Z,9.65
2023-01-21T14:47:21.881Z,9.67
2023-01-21T14:49:56.358Z,9.47
2023-01-21T14:52:45.247Z,9.53
2023-01-21T14:55:28.352Z,9.34
2023-01-21T14:57:57.816Z,9.32
2023-01-21T15:00:35.924Z,9.36
2023-01-21T15:03:02.734Z,9.20
2023-01-21T15:05:34.625Z,9.11
2023-01-21T15:08:08.246Z,9.00
2023-01-21T15:10:40.818Z,8.92
2023-01-21T15:13:34.256Z,8.92
2023-01-21T15:16:31.719Z,8.87
2023-01-21T15:19:10.338Z,9.02
2023-01-21T15:21:42.850Z,8.99
2023-01-21T15:24:18.679Z,8.99
2023-01-21T15:27:16.638Z,9.02
2023-01-21T15:29:55.349Z,8.82
2023-01-21T15:32:34.808Z,8.69
2023-01-21T15:35:15.087Z,8.70
2023-01-21T15:37:46.491Z,8.69
2023-01-21T15:40:29.284Z,8.72
2023-01-21T15:43:02.018Z,8.65
2023-01-21T15:45:41.300Z,8.59
2023-01-21T15:48:45.592Z,8.56
2023-01-21T15:51:12.600Z,8.58
2023-01-21T15:54:04.061Z,8.53
2023-01-21T15:56:41.199Z,8.48
2023-01-21T15:59:18.257Z,8.48
2023-01-21T16:01:52.449Z,8.40
2023-01-21T16:04:33.195Z,8.36
2023-01-21T16:07:31.063Z,8.25
2023-01-21T16:10:09.695Z,8.26
2023-01-21T16:12:47.441Z,8.36
2023-01-21T16:15:32.918Z,8.42
2023-01-21T16:18:26.132Z,8.49
2023-01-21T16:20:56.479Z,8.47
2023-01-21T16:23:26.984Z,8.42
2023-01-21T16:25:54.863Z,8.43
2023-01-21T16:28:21.808Z,8.47
2023-01-21T16:30:57.678Z,8.36
2023-01-21T16:33:25.067Z,8.33
2023-01-21T16:35:55.023Z,8.34
2023-01-21T16:38:27.656Z,8.33
2023-01-21T16:41:20.313Z,8.35
2023-01-21T16:43:50.300Z,8.34
2023-01-21T16:46:20.875Z,8.39
2023-01-21T16:48:53.738Z,8.42
2023-01-21T16:51:23.520Z,8.30
2023-01-21T16:53:53.437Z,8.21
2023-01-21T16:56:29.284Z,8.17
2023-01-21T16:58:56.737Z,8.20
2023-01-21T17:01:26.789Z,8.05
2023-01-21T17:03:55.003Z,8.07
2023-01-21T17:06:26.844Z,8.07
2023-01-21T17:09:03.324Z,8.09
2023-01-21T17:11:30.320Z,8.01
2023-01-21T17:14:01.778Z,8.02
2023-01-21T17:16:35.084Z,8.01
2023-01-21T17:19:08.445Z,7.99
2023-01-21T17:21:47.881Z,7.90
2023-01-21T17:24:22.744Z,7.76
2023-01-21T17:26:52.601Z,7.60
2023-01-21T17:29:31.538Z,7.61
2023-01-21T17:32:07.183Z,7.53
2023-01-21T17:34:36.517Z,7.52
2023-01-21T17:37:30.690Z,7.53
2023-01-21T17:39:59.763Z,7.55
2023-01-21T17:42:31.502Z,7.54
2023-01-21T17:45:04.003Z,7.51
2023-01-21T17:47:34.219Z,7.39
2023-01-21T17:50:03.904Z,7.47
2023-01-21T17:52:31.477Z,7.46
2023-01-21T17:55:17.135Z,7.51
2023-01-21T17:57:44.177Z,7.58
2023-01-21T18:00:29.832Z,7.65
2023-01-21T18:02:58.174Z,7.67
2023-01-21T18:05:25.128Z,7.73
2023-01-21T18:07:52.343Z,7.74
2023-01-21T18:10:24.435Z,7.79
2023-01-21T18:12:52.127Z,7.77
2023-01-21T18:15:19.229Z,7.80
2023-01-21T18:17:49.580Z,7.72
2023-01-21T18:20:22.072Z,7.64
2023-01-21T18:22:50.968Z,7.63
2023-01-21T18:25:19.286Z,7.47
2023-01-21T18:27:48.416Z,7.46
2023-01-21T18:30:19.669Z,7.47
2023-01-21T18:32:46.888Z,7.53
2023-01-21T18:35:20.695Z,7.50
2023-01-21T18:37:47.605Z,7.57
2023-01-21T18:40:16.539Z,7.60
2023-01-21T18:42:47.337Z,7.41
2023-01-21T18:45:20.053Z,7.11
2023-01-21T18:47:49.822Z,6.83
2023-01-21T18:50:26.169Z,6.69
2023-01-21T18:52:53.309Z,6.77
2023-01-21T18:55:21.337Z,6.81
2023-01-21T18:57:50.474Z,6.94
2023-01-21T19:00:26.818Z,7.00
2023-01-21T19:02:55.097Z,7.03
2023-01-21T19:05:27.718Z,6.95
2023-01-21T19:07:54.702Z,6.69
2023-01-21T19:10:21.576Z,6.82
2023-01-21T19:12:48.896Z,6.90
2023-01-21T19:15:18.540Z,6.96
2023-01-21T19:17:45.583Z,7.00
2023-01-21T19:20:27.113Z,7.04
2023-01-21T19:22:55.286Z,7.04
2023-01-21T19:25:24.690Z,7.01
2023-01-21T19:27:54.498Z,6.94
2023-01-21T19:30:30.465Z,6.91
2023-01-21T19:32:59.223Z,6.79
2023-01-21T19:35:34.078Z,6.77
2023-01-21T19:38:03.730Z,6.75
2023-01-21T19:40:31.146Z,6.74
2023-01-21T19:42:58.166Z,6.75
2023-01-21T19:45:28.386Z,6.70
2023-01-21T19:47:55.960Z,6.52
2023-01-21T19:50:26.108Z,6.50
2023-01-21T19:52:54.798Z,6.52
2023-01-21T19:55:24.468Z,6.43
2023-01-21T19:58:02.155Z,6.39
2023-01-21T20:00:31.389Z,6.42
2023-01-21T20:03:09.386Z,6.41
2023-01-21T20:05:36.358Z,6.21
2023-01-21T20:08:04.936Z,5.82
2023-01-21T20:10:32.037Z,5.79
2023-01-21T20:12:58.971Z,5.86
2023-01-21T20:15:31.271Z,5.95
2023-01-21T20:18:01.054Z,6.06
2023-01-21T20:20:30.600Z,6.05
2023-01-21T20:22:58.750Z,6.08
2023-01-21T20:25:31.918Z,6.14
2023-01-21T20:28:00.576Z,6.10
2023-01-21T20:30:32.558Z,6.11
2023-01-21T20:32:59.781Z,6.14
2023-01-21T20:35:27.108Z,5.95
2023-01-21T20:37:56.335Z,5.64
2023-01-21T20:40:25.700Z,5.80
2023-01-21T20:42:53.738Z,5.88
2023-01-21T20:45:27.078Z,5.60
2023-01-21T20:47:56.745Z,5.71
2023-01-21T20:50:28.044Z,5.83
2023-01-21T20:52:55.204Z,5.71
2023-01-21T20:55:25.616Z,5.66
2023-01-21T20:57:52.989Z,5.73
2023-01-21T21:00:32.499Z,5.83
2023-01-21T21:02:59.629Z,5.62
2023-01-21T21:05:27.901Z,5.50
2023-01-21T21:07:55.509Z,5.43
2023-01-21T21:10:32.698Z,4.76
2023-01-21T21:13:00.490Z,4.92
2023-01-21T21:15:28.803Z,4.93
2023-01-21T21:17:55.771Z,5.04
2023-01-21T21:20:31.391Z,5.14
2023-01-21T21:22:58.609Z,5.16
2023-01-21T21:25:31.635Z,4.94
2023-01-21T21:27:59.334Z,4.95
2023-01-21T21:30:32.039Z,5.04
2023-01-21T21:33:00.744Z,5.18
2023-01-21T21:35:35.422Z,5.31
2023-01-21T21:38:20.877Z,5.03
2023-01-21T21:40:48.363Z,5.13
2023-01-21T21:43:19.573Z,5.16
2023-01-21T21:45:46.743Z,5.24
2023-01-21T21:48:24.093Z,5.32
2023-01-21T21:50:57.978Z,5.11
2023-01-21T21:53:24.982Z,4.77
2023-01-21T21:55:52.029Z,4.84
2023-01-21T21:58:19.081Z,4.83
2023-01-21T22:00:46.140Z,4.93
2023-01-21T22:03:13.180Z,4.88
2023-01-21T22:05:40.088Z,5.02
2023-01-21T22:08:07.175Z,5.09
2023-01-21T22:10:34.103Z,5.12
2023-01-21T22:13:01.061Z,5.15
2023-01-21T22:15:28.019Z,5.15
2023-01-21T22:17:55.524Z,5.01
2023-01-21T22:20:22.500Z,4.96
2023-01-21T22:22:49.512Z,4.94
2023-01-21T22:25:16.833Z,4.76
2023-01-21T22:27:45.581Z,4.56
2023-01-21T22:30:12.988Z,4.56
2023-01-21T22:32:39.911Z,4.71
2023-01-21T22:35:07.315Z,4.78
2023-01-21T22:37:34.262Z,4.84
2023-01-21T22:40:01.332Z,4.89
2023-01-21T22:42:31.973Z,4.78
2023-01-21T22:45:00.075Z,4.82
2023-01-21T22:47:26.952Z,4.52
2023-01-21T22:49:53.863Z,4.18
2023-01-21T22:52:20.652Z,4.34
2023-01-21T22:54:49.498Z,4.43
2023-01-21T22:57:17.138Z,4.64
2023-01-21T22:59:43.972Z,4.70
2023-01-21T23:02:10.793Z,4.74
2023-01-21T23:04:38.116Z,4.74
2023-01-21T23:07:04.952Z,4.73
2023-01-21T23:09:31.869Z,4.83
2023-01-21T23:11:58.702Z,4.61
2023-01-21T23:14:25.754Z,4.43
2023-01-21T23:16:53.188Z,4.41
2023-01-21T23:19:20.170Z,4.57
2023-01-21T23:21:47.053Z,4.24
2023-01-21T23:24:13.925Z,4.02
2023-01-21T23:26:40.790Z,4.23
2023-01-21T23:29:07.763Z,4.42
2023-01-21T23:31:34.827Z,4.57
2023-01-21T23:34:01.750Z,4.63
2023-01-21T23:36:28.661Z,4.66
2023-01-21T23:38:55.480Z,4.59
2023-01-21T23:41:22.323Z,4.58
2023-01-21T23:43:49.329Z,4.55
2023-01-21T23:46:17.867Z,4.08
2023-01-21T23:48:44.695Z,4.04
2023-01-21T23:51:13.644Z,3.83
2023-01-21T23:53:40.675Z,3.40
2023-01-21T23:56:10.974Z,3.10
2023-01-21T23:58:37.928Z,3.33
